Details From GCTS - Tenerife Sur
To GCGM - La Gomera
Flight Number -
Tags generated
Created
Modified
Stats Distance 35 nm / 64 km
Max Altitude 2,300 ft / 701 m
Waypoints 3
Social Downloads 1
Likes 0
Share VATSIM

Download

Looking for another format? Having issues loading an existing format? Contact us
Advertisement - Login to hide

Notes

Basic altitude profile: - Ascent Rate: 2500ft/min - Ascent Speed: 250kts - Cruise Altitude: 35000ft - Cruise Speed: 420kts - Descent Rate: 1500ft/min - Descent Speed: 250kts Options: - Use NATs: yes - Use PACOTS: yes - Use low airways: yes - Use high airways: yes

Route

GCTS TFS GCGM

ID Type Via Altitude Latitude Longitude Leg Dist Tot Dist Heading (true) Name
O GCTS APT - 0 ft / 0 m 28.04448˚ -16.57249˚ - 0 nm - Tenerife Sur
TFS VOR - 2,300 ft / 701 m 28.00245˚ -16.68793˚ 6 nm 6 nm 248° / 248° TENERIFE SUR VOR-DME
O GCGM APT - 0 ft / 0 m 28.02963˚ -17.21460˚ 27 nm 34 nm 273° / 273° La Gomera

Altitude Profile

Advertisement - Login to hide

GCTS

Details ICAO GCTS (TFS)
Name Tenerife Sur
Region Canary Islands
Timezone Atlantic/Canary (UTC+0.0)
Stats Elevation 209 ft / 64 m (AMSL)
Location 28.044475° -16.572488°
Runways 1
Magnetic Variation 5.117° W

METAR

GCTS 140630Z 06016KT 9999 FEW030 17/09 Q1024 NOSIG

Decode

TAF

TAF GCTS 140200Z 1403/1503 06020KT 9999 FEW030 TX24/1414Z TN15/1406Z

Decode

Departure Runways

ID Width Length Bearing (true) Bearing (mag) Surface Threshold Offset Overrun Length
08 148 ft / 45 m 10,489 ft / 3,197 m 68.47° 73.59° Asphalt 0 ft / 0 m 0 ft / 0 m
26 148 ft / 45 m 10,489 ft / 3,197 m 248.49° 253.61° Asphalt 0 ft / 0 m 0 ft / 0 m

GCGM

Details ICAO GCGM (GMZ)
Name La Gomera
Region Canary Islands
Timezone Atlantic/Canary (UTC+0.0)
Stats Elevation 715 ft / 218 m (AMSL)
Location 28.029627° -17.214603°
Runways 1
Magnetic Variation 5.359° W

METAR

GCGM 140630Z AUTO VRB04G14KT 9999 NCD 17/06 Q1024 RMK R09/33004KT 250V050 ARP/36006KT 310V070

Decode

TAF

TAF GCGM 140200Z 1403/1503 VRB05KT 9999 SCT030 TX22/1414Z TN16/14FPWYMEU /WSCN05 CWAO 140225 CZUL SIGMET K1 VALID 132240/140240 CWUL- CZUL MONTREAL FIR CNCL SIGMET K4 132240/140240

Decode

Destination Runways

ID Width Length Bearing (true) Bearing (mag) Surface Threshold Offset Overrun Length
09 98 ft / 30 m 4,914 ft / 1,498 m 81.17° 86.53° Asphalt 0 ft / 0 m 0 ft / 0 m
27 98 ft / 30 m 4,914 ft / 1,498 m 261.18° 266.54° Asphalt 0 ft / 0 m 0 ft / 0 m

Popular Alternatives